createdAt,value
2023-10-07T00:02:13.336Z,12.82
2023-10-07T00:04:53.446Z,12.89
2023-10-07T00:07:33.615Z,12.91
2023-10-07T00:10:21.157Z,12.92
2023-10-07T00:13:01.900Z,12.88
2023-10-07T00:15:45.396Z,12.89
2023-10-07T00:18:26.131Z,12.93
2023-10-07T00:21:06.252Z,12.94
2023-10-07T00:23:46.586Z,12.97
2023-10-07T00:26:28.124Z,12.94
2023-10-07T00:29:12.591Z,12.96
2023-10-07T00:31:54.261Z,12.98
2023-10-07T00:34:39.832Z,13.03
2023-10-07T00:37:21.802Z,13.01
2023-10-07T00:40:16.203Z,13.03
2023-10-07T00:42:56.531Z,13.10
2023-10-07T00:45:36.989Z,13.06
2023-10-07T00:48:18.068Z,13.06
2023-10-07T00:50:59.305Z,13.09
2023-10-07T00:54:01.261Z,13.19
2023-10-07T00:56:43.808Z,13.19
2023-10-07T00:59:25.360Z,13.26
2023-10-07T01:02:08.037Z,13.21
2023-10-07T01:04:49.220Z,13.23
2023-10-07T01:07:29.732Z,13.15
2023-10-07T01:10:10.200Z,13.22
2023-10-07T01:12:52.641Z,13.18
2023-10-07T01:15:36.039Z,13.14
2023-10-07T01:18:20.414Z,13.15
2023-10-07T01:21:10.088Z,13.11
2023-10-07T01:23:54.273Z,13.03
2023-10-07T01:26:41.287Z,12.98
2023-10-07T01:29:22.253Z,12.91
2023-10-07T01:32:05.428Z,12.81
2023-10-07T01:34:53.805Z,12.73
2023-10-07T01:37:44.737Z,12.75
2023-10-07T01:40:28.877Z,12.75
2023-10-07T01:43:09.248Z,12.78
2023-10-07T01:45:50.285Z,12.71
2023-10-07T01:48:30.484Z,12.62
2023-10-07T01:51:14.093Z,12.50
2023-10-07T01:54:05.282Z,12.44
2023-10-07T01:56:48.840Z,12.56
2023-10-07T01:59:30.295Z,12.53
2023-10-07T02:02:13.000Z,12.56
2023-10-07T02:04:56.617Z,12.59
2023-10-07T02:07:38.190Z,12.51
2023-10-07T02:10:24.910Z,12.43
2023-10-07T02:13:05.772Z,12.26
2023-10-07T02:15:58.341Z,12.20
2023-10-07T02:18:38.523Z,12.18
2023-10-07T02:21:21.876Z,12.22
2023-10-07T02:24:06.950Z,12.03
2023-10-07T02:26:47.469Z,12.07
2023-10-07T02:29:29.383Z,12.04
2023-10-07T02:32:16.002Z,12.01
2023-10-07T02:34:56.852Z,12.02
2023-10-07T02:37:40.324Z,11.88
2023-10-07T02:40:23.785Z,11.85
2023-10-07T02:43:10.453Z,11.88
2023-10-07T02:45:51.520Z,11.86
2023-10-07T02:48:36.036Z,11.89
2023-10-07T02:51:19.992Z,11.94
2023-10-07T02:54:06.688Z,12.03
2023-10-07T02:57:04.744Z,12.06
2023-10-07T02:59:52.113Z,12.09
2023-10-07T03:02:48.930Z,12.10
2023-10-07T03:05:31.011Z,12.10
2023-10-07T03:08:20.604Z,12.09
2023-10-07T03:11:12.316Z,12.13
2023-10-07T03:14:00.197Z,12.16
2023-10-07T03:17:00.834Z,12.22
2023-10-07T03:19:54.605Z,12.27
2023-10-07T03:22:44.390Z,12.29
2023-10-07T03:25:34.473Z,12.35
2023-10-07T03:28:19.680Z,12.39
2023-10-07T03:30:59.968Z,12.46
2023-10-07T03:33:45.268Z,12.56
2023-10-07T03:36:41.654Z,12.62
2023-10-07T03:39:21.973Z,12.74
2023-10-07T03:42:03.396Z,12.75
2023-10-07T03:44:43.663Z,12.74
2023-10-07T03:47:25.444Z,12.84
2023-10-07T03:50:26.106Z,12.78
2023-10-07T03:53:06.729Z,12.86
2023-10-07T03:55:47.823Z,12.88
2023-10-07T03:58:29.338Z,12.89
2023-10-07T04:01:19.514Z,12.89
2023-10-07T04:04:03.170Z,12.92
2023-10-07T04:06:43.899Z,12.91
2023-10-07T04:09:34.381Z,12.85
2023-10-07T04:12:15.647Z,12.85
2023-10-07T04:14:57.116Z,12.80
2023-10-07T04:17:39.561Z,12.85
2023-10-07T04:20:20.503Z,12.85
2023-10-07T04:23:03.659Z,12.92
2023-10-07T04:25:45.238Z,12.91
2023-10-07T04:28:28.939Z,12.95
2023-10-07T04:31:13.722Z,12.96
2023-10-07T04:33:55.019Z,12.93
2023-10-07T04:36:38.815Z,12.95
2023-10-07T04:39:19.455Z,12.97
2023-10-07T04:42:01.226Z,13.03
2023-10-07T04:44:41.440Z,13.07
2023-10-07T04:47:30.284Z,13.03
2023-10-07T04:50:13.221Z,13.04
2023-10-07T04:52:53.164Z,13.03
2023-10-07T04:55:34.320Z,13.07
2023-10-07T04:58:16.848Z,13.08
2023-10-07T05:01:06.109Z,13.07
2023-10-07T05:03:46.379Z,13.10
2023-10-07T05:06:26.900Z,13.08
2023-10-07T05:09:11.683Z,13.13
2023-10-07T05:11:52.054Z,13.16
2023-10-07T05:14:32.146Z,13.14
2023-10-07T05:17:12.417Z,13.21
2023-10-07T05:19:52.790Z,13.18
2023-10-07T05:22:33.203Z,13.21
2023-10-07T05:25:14.664Z,13.24
2023-10-07T05:27:57.122Z,13.27
2023-10-07T05:30:51.554Z,13.34
2023-10-07T05:33:37.046Z,13.34
2023-10-07T05:36:22.218Z,13.38
2023-10-07T05:39:02.340Z,13.45
2023-10-07T05:41:43.304Z,13.46
2023-10-07T05:44:23.350Z,13.51
2023-10-07T05:47:06.748Z,13.54
2023-10-07T05:49:47.308Z,13.56
2023-10-07T05:52:29.204Z,13.57
2023-10-07T05:55:10.594Z,13.64
2023-10-07T05:57:53.188Z,13.66
2023-10-07T06:00:33.449Z,13.58
2023-10-07T06:03:13.677Z,13.63
2023-10-07T06:05:54.272Z,13.69
2023-10-07T06:08:34.624Z,13.65
2023-10-07T06:11:16.358Z,13.59
2023-10-07T06:13:56.537Z,13.52
2023-10-07T06:16:37.823Z,13.63
2023-10-07T06:19:18.873Z,13.70
2023-10-07T06:21:58.870Z,13.71
2023-10-07T06:24:43.281Z,13.71
2023-10-07T06:27:23.413Z,13.73
2023-10-07T06:30:04.698Z,13.79
2023-10-07T06:32:56.237Z,13.83
2023-10-07T06:35:38.920Z,13.89
2023-10-07T06:38:21.625Z,13.90
2023-10-07T06:41:11.148Z,13.98
2023-10-07T06:43:51.736Z,14.04
2023-10-07T06:46:46.360Z,14.08
2023-10-07T06:49:28.508Z,14.15
2023-10-07T06:52:13.791Z,14.23
2023-10-07T06:55:06.525Z,14.30
2023-10-07T06:57:49.078Z,14.37
2023-10-07T07:00:46.170Z,14.41
2023-10-07T07:03:27.114Z,14.47
2023-10-07T07:06:17.796Z,14.70
2023-10-07T07:08:58.161Z,14.76
2023-10-07T07:11:38.483Z,14.83
2023-10-07T07:14:18.543Z,14.79
2023-10-07T07:17:19.426Z,14.83
2023-10-07T07:20:21.048Z,14.94
2023-10-07T07:23:10.952Z,14.95
2023-10-07T07:26:07.685Z,14.91
2023-10-07T07:28:48.544Z,14.80
2023-10-07T07:31:34.536Z,14.83
2023-10-07T07:34:28.064Z,14.93
2023-10-07T07:37:11.471Z,15.00
2023-10-07T07:39:51.454Z,15.02
2023-10-07T07:42:33.550Z,15.17
2023-10-07T07:45:16.731Z,15.17
2023-10-07T07:47:57.315Z,15.36
2023-10-07T07:50:40.645Z,15.47
2023-10-07T07:53:21.789Z,15.60
2023-10-07T07:56:02.186Z,15.68
2023-10-07T07:58:48.674Z,15.78
2023-10-07T08:01:32.427Z,15.87
2023-10-07T08:04:34.319Z,15.84
2023-10-07T08:07:24.704Z,15.61
2023-10-07T08:10:05.547Z,15.62
2023-10-07T08:12:48.131Z,15.69
2023-10-07T08:15:40.083Z,15.84
2023-10-07T08:18:32.769Z,16.01
2023-10-07T08:21:15.137Z,16.04
2023-10-07T08:23:55.777Z,16.04
2023-10-07T08:26:42.517Z,15.94
2023-10-07T08:29:41.562Z,15.74
2023-10-07T08:32:42.652Z,15.79
2023-10-07T08:35:27.188Z,15.82
2023-10-07T08:38:21.108Z,15.85
2023-10-07T08:41:06.416Z,16.04
2023-10-07T08:44:02.217Z,16.11
2023-10-07T08:46:50.394Z,16.17
2023-10-07T08:49:34.364Z,16.41
2023-10-07T08:52:17.347Z,16.24
2023-10-07T08:54:57.818Z,16.28
2023-10-07T08:57:38.277Z,16.29
2023-10-07T09:00:22.495Z,16.34
2023-10-07T09:03:15.750Z,16.38
2023-10-07T09:06:10.464Z,16.18
2023-10-07T09:08:50.548Z,16.22
2023-10-07T09:11:31.515Z,16.29
2023-10-07T09:14:11.829Z,16.27
2023-10-07T09:16:52.116Z,16.22
2023-10-07T09:19:32.504Z,16.14
2023-10-07T09:22:12.747Z,16.36
2023-10-07T09:24:58.245Z,16.12
2023-10-07T09:27:38.622Z,16.16
2023-10-07T09:30:37.368Z,16.03
2023-10-07T09:33:19.652Z,16.22
2023-10-07T09:36:18.162Z,16.38
2023-10-07T09:39:32.730Z,16.36
2023-10-07T09:42:28.119Z,16.26
2023-10-07T09:45:09.121Z,16.52
2023-10-07T09:47:50.177Z,16.65
2023-10-07T09:50:34.727Z,16.38
2023-10-07T09:53:28.825Z,16.48
2023-10-07T09:56:40.874Z,16.44
2023-10-07T09:59:45.005Z,16.73
2023-10-07T10:03:05.232Z,17.30
2023-10-07T10:06:14.362Z,17.75
2023-10-07T10:08:59.458Z,17.73
2023-10-07T10:11:39.722Z,17.77
2023-10-07T10:14:23.528Z,17.54
2023-10-07T10:17:13.365Z,17.60
2023-10-07T10:20:10.565Z,17.75
2023-10-07T10:22:52.376Z,17.89
2023-10-07T10:25:41.065Z,17.95
2023-10-07T10:28:22.187Z,17.56
2023-10-07T10:31:02.490Z,17.58
2023-10-07T10:33:43.700Z,17.61
2023-10-07T10:36:24.041Z,17.88
2023-10-07T10:39:06.571Z,18.04
2023-10-07T10:41:47.050Z,18.34
2023-10-07T10:44:27.416Z,18.72
2023-10-07T10:47:09.335Z,19.45
2023-10-07T10:49:56.247Z,19.90
2023-10-07T10:52:37.374Z,20.20
2023-10-07T10:55:18.316Z,20.39
2023-10-07T10:57:59.348Z,20.29
2023-10-07T11:00:50.386Z,20.26
2023-10-07T11:03:31.695Z,20.14
2023-10-07T11:06:12.826Z,19.89
2023-10-07T11:08:53.178Z,20.35
2023-10-07T11:11:36.523Z,20.15
2023-10-07T11:14:21.754Z,19.68
2023-10-07T11:17:04.507Z,19.66
2023-10-07T11:19:54.497Z,19.54
2023-10-07T11:22:39.082Z,19.34
2023-10-07T11:25:20.128Z,19.51
2023-10-07T11:28:00.285Z,19.32
2023-10-07T11:30:48.123Z,19.48
2023-10-07T11:33:30.049Z,19.63
2023-10-07T11:36:11.281Z,19.58
2023-10-07T11:38:51.883Z,19.11
2023-10-07T11:41:34.130Z,19.03
2023-10-07T11:44:18.026Z,18.83
2023-10-07T11:46:58.659Z,18.75
2023-10-07T11:49:38.735Z,18.84
2023-10-07T11:52:20.666Z,19.01
2023-10-07T11:55:02.028Z,19.11
2023-10-07T11:57:42.166Z,18.95
2023-10-07T12:00:28.899Z,18.51
2023-10-07T12:03:09.467Z,19.01
2023-10-07T12:05:50.298Z,19.27
2023-10-07T12:08:30.970Z,19.19
2023-10-07T12:11:11.761Z,18.99
2023-10-07T12:13:51.712Z,18.90
2023-10-07T12:16:34.330Z,18.83
2023-10-07T12:19:20.590Z,19.06
2023-10-07T12:22:01.116Z,19.06
2023-10-07T12:24:43.495Z,19.04
2023-10-07T12:27:23.783Z,19.12
2023-10-07T12:30:04.526Z,19.15
2023-10-07T12:32:45.313Z,19.23
2023-10-07T12:35:25.809Z,19.28
2023-10-07T12:38:07.247Z,18.95
2023-10-07T12:40:47.934Z,18.69
2023-10-07T12:43:28.800Z,18.91
2023-10-07T12:46:11.371Z,19.07
2023-10-07T12:48:52.355Z,18.93
2023-10-07T12:51:32.519Z,19.28
2023-10-07T12:54:13.638Z,19.45
2023-10-07T12:56:55.652Z,19.54
2023-10-07T12:59:36.915Z,19.70
2023-10-07T13:02:18.659Z,19.65
2023-10-07T13:04:59.446Z,19.50
2023-10-07T13:07:39.615Z,19.60
2023-10-07T13:10:20.797Z,19.72
2023-10-07T13:13:05.324Z,19.13
2023-10-07T13:15:46.885Z,19.11
2023-10-07T13:18:33.597Z,19.02
2023-10-07T13:21:20.435Z,18.68
2023-10-07T13:24:00.788Z,18.78
2023-10-07T13:26:41.005Z,18.88
2023-10-07T13:29:21.034Z,18.96
2023-10-07T13:32:01.810Z,18.85
2023-10-07T13:34:41.769Z,19.09
2023-10-07T13:37:21.943Z,19.11
2023-10-07T13:40:09.004Z,18.88
2023-10-07T13:42:51.319Z,18.80
2023-10-07T13:45:31.680Z,18.44
2023-10-07T13:48:12.401Z,18.21
2023-10-07T13:51:00.219Z,18.13
2023-10-07T13:53:53.039Z,17.99
2023-10-07T13:56:46.813Z,17.90
2023-10-07T13:59:27.736Z,17.83
2023-10-07T14:02:16.540Z,17.61
2023-10-07T14:04:58.916Z,17.71
2023-10-07T14:07:40.787Z,17.65
2023-10-07T14:10:24.230Z,17.60
2023-10-07T14:13:04.662Z,17.59
2023-10-07T14:15:50.186Z,17.49
2023-10-07T14:18:30.523Z,17.55
2023-10-07T14:21:11.175Z,17.50
2023-10-07T14:23:51.378Z,17.46
2023-10-07T14:26:34.474Z,17.48
2023-10-07T14:29:14.669Z,17.44
2023-10-07T14:31:55.135Z,17.66
2023-10-07T14:34:36.364Z,17.74
2023-10-07T14:37:16.634Z,17.92
2023-10-07T14:39:58.484Z,18.22
2023-10-07T14:42:38.797Z,18.33
2023-10-07T14:45:20.321Z,18.27
2023-10-07T14:48:01.870Z,18.42
2023-10-07T14:50:42.194Z,18.54
2023-10-07T14:53:22.911Z,18.83
2023-10-07T14:56:26.164Z,18.99
2023-10-07T14:59:06.784Z,18.83
2023-10-07T15:01:46.954Z,18.72
2023-10-07T15:04:27.050Z,18.58
2023-10-07T15:07:08.537Z,18.47
2023-10-07T15:09:49.915Z,18.52
2023-10-07T15:12:29.880Z,18.68
2023-10-07T15:15:14.884Z,18.50
2023-10-07T15:17:56.325Z,18.40
2023-10-07T15:20:38.985Z,18.38
2023-10-07T15:23:19.856Z,18.37
2023-10-07T15:26:00.214Z,18.31
2023-10-07T15:28:40.994Z,18.28
2023-10-07T15:31:26.854Z,18.24
2023-10-07T15:34:11.707Z,18.15
2023-10-07T15:36:57.429Z,17.95
2023-10-07T15:39:38.037Z,17.94
2023-10-07T15:42:19.112Z,17.77
2023-10-07T15:45:00.471Z,17.78
2023-10-07T15:47:41.920Z,17.69
2023-10-07T15:50:22.292Z,17.66
2023-10-07T15:53:03.203Z,17.68
2023-10-07T15:55:43.641Z,17.58
2023-10-07T15:58:24.861Z,17.54
2023-10-07T16:01:05.965Z,17.55
2023-10-07T16:03:46.812Z,17.52
2023-10-07T16:06:27.022Z,17.45
2023-10-07T16:09:16.447Z,17.49
2023-10-07T16:11:57.976Z,17.49
2023-10-07T16:14:38.148Z,17.56
2023-10-07T16:17:20.398Z,17.54
2023-10-07T16:20:02.185Z,17.40
2023-10-07T16:22:42.501Z,17.38
2023-10-07T16:25:23.146Z,17.32
2023-10-07T16:28:06.111Z,17.33
2023-10-07T16:30:48.645Z,17.30
2023-10-07T16:33:32.835Z,17.26
2023-10-07T16:36:13.890Z,17.27
2023-10-07T16:38:54.265Z,17.29
2023-10-07T16:41:34.577Z,17.27
2023-10-07T16:44:15.699Z,17.34
2023-10-07T16:46:55.967Z,17.30
2023-10-07T16:49:36.970Z,17.28
2023-10-07T16:52:17.498Z,17.31
2023-10-07T16:54:58.086Z,17.40
2023-10-07T16:57:39.675Z,17.40
2023-10-07T17:00:20.227Z,17.42
2023-10-07T17:03:00.513Z,17.45
2023-10-07T17:05:41.137Z,17.40
2023-10-07T17:08:25.836Z,17.36
2023-10-07T17:11:10.563Z,17.36
2023-10-07T17:13:52.278Z,17.40
2023-10-07T17:16:32.351Z,17.36
2023-10-07T17:19:12.598Z,17.39
2023-10-07T17:21:52.887Z,17.39
2023-10-07T17:24:33.244Z,17.33
2023-10-07T17:27:13.570Z,17.23
2023-10-07T17:29:53.626Z,17.15
2023-10-07T17:32:35.366Z,17.09
2023-10-07T17:35:16.495Z,17.17
2023-10-07T17:37:57.189Z,17.19
2023-10-07T17:40:37.735Z,17.20
2023-10-07T17:43:18.734Z,17.10
2023-10-07T17:45:58.956Z,17.07
2023-10-07T17:48:39.249Z,17.06
2023-10-07T17:51:19.499Z,17.08
2023-10-07T17:53:59.590Z,17.08
2023-10-07T17:56:39.966Z,17.07
2023-10-07T17:59:20.382Z,17.04
2023-10-07T18:02:00.585Z,17.05
2023-10-07T18:04:41.241Z,17.02
2023-10-07T18:07:22.867Z,17.00
2023-10-07T18:10:02.850Z,16.98
2023-10-07T18:12:45.128Z,17.10
2023-10-07T18:15:25.263Z,17.05
2023-10-07T18:18:06.989Z,17.06
2023-10-07T18:20:53.869Z,17.12
2023-10-07T18:23:38.001Z,17.14
2023-10-07T18:26:18.318Z,17.10
2023-10-07T18:29:00.436Z,17.11
2023-10-07T18:31:41.047Z,17.11
2023-10-07T18:34:24.981Z,17.10
2023-10-07T18:37:04.989Z,17.06
2023-10-07T18:39:44.863Z,17.02
2023-10-07T18:42:26.005Z,16.98
2023-10-07T18:45:08.907Z,16.99
2023-10-07T18:47:49.544Z,16.95
2023-10-07T18:50:30.118Z,16.92
2023-10-07T18:53:10.756Z,16.95
2023-10-07T18:55:54.500Z,16.99
2023-10-07T18:58:34.610Z,16.98
2023-10-07T19:01:15.584Z,17.01
2023-10-07T19:03:55.834Z,17.09
2023-10-07T19:06:37.436Z,17.09
2023-10-07T19:09:17.921Z,17.15
2023-10-07T19:11:58.045Z,17.26
2023-10-07T19:14:38.298Z,17.30
2023-10-07T19:17:18.632Z,17.31
2023-10-07T19:19:59.076Z,17.42
2023-10-07T19:22:42.024Z,17.46
2023-10-07T19:25:22.456Z,17.55
2023-10-07T19:28:02.961Z,17.57
2023-10-07T19:30:44.647Z,17.67
2023-10-07T19:33:25.189Z,17.63
2023-10-07T19:36:06.718Z,17.63
2023-10-07T19:38:46.769Z,17.64
2023-10-07T19:41:26.947Z,17.69
2023-10-07T19:44:06.939Z,17.71
2023-10-07T19:46:47.470Z,17.65
2023-10-07T19:49:27.762Z,17.72
2023-10-07T19:52:07.921Z,17.66
2023-10-07T19:54:48.313Z,17.68
2023-10-07T19:57:28.492Z,17.66
2023-10-07T20:00:10.205Z,17.66
2023-10-07T20:02:53.851Z,17.66
2023-10-07T20:05:36.614Z,17.61
2023-10-07T20:08:17.136Z,17.58
2023-10-07T20:10:58.241Z,17.51
2023-10-07T20:13:38.832Z,17.51
2023-10-07T20:16:19.137Z,17.46
2023-10-07T20:18:59.072Z,17.46
2023-10-07T20:21:39.332Z,17.45
2023-10-07T20:24:21.226Z,17.40
2023-10-07T20:27:01.487Z,17.43
2023-10-07T20:29:41.974Z,17.38
2023-10-07T20:32:22.199Z,17.37
2023-10-07T20:35:09.642Z,17.40
2023-10-07T20:37:49.892Z,17.44
2023-10-07T20:40:30.728Z,17.42
2023-10-07T20:43:10.833Z,17.31
2023-10-07T20:46:12.597Z,17.33
2023-10-07T20:48:53.054Z,17.28
2023-10-07T20:51:33.303Z,17.31
2023-10-07T20:54:13.423Z,17.28
2023-10-07T20:56:53.822Z,17.29
2023-10-07T20:59:34.201Z,17.34
2023-10-07T21:02:16.089Z,17.36
2023-10-07T21:04:56.475Z,17.37
2023-10-07T21:07:36.895Z,17.40
2023-10-07T21:10:17.337Z,17.43
2023-10-07T21:12:57.670Z,17.46
2023-10-07T21:15:38.836Z,17.43
2023-10-07T21:18:19.174Z,17.45
2023-10-07T21:20:59.325Z,17.44
2023-10-07T21:23:40.338Z,17.43
2023-10-07T21:26:23.038Z,17.44
2023-10-07T21:29:04.560Z,17.49
2023-10-07T21:31:46.201Z,17.50
2023-10-07T21:34:26.393Z,17.50
2023-10-07T21:37:06.679Z,17.45
2023-10-07T21:39:46.955Z,17.45
2023-10-07T21:42:27.195Z,17.40
2023-10-07T21:45:09.111Z,17.46
2023-10-07T21:47:51.007Z,17.58
2023-10-07T21:50:31.547Z,17.55
2023-10-07T21:53:12.566Z,17.58
2023-10-07T21:55:52.762Z,17.54
2023-10-07T21:58:33.862Z,17.51
2023-10-07T22:01:16.974Z,17.48
2023-10-07T22:03:57.569Z,17.44
2023-10-07T22:06:37.967Z,17.45
2023-10-07T22:09:19.299Z,17.50
2023-10-07T22:11:59.924Z,17.49
2023-10-07T22:14:40.550Z,17.55
2023-10-07T22:17:20.723Z,17.54
2023-10-07T22:20:00.971Z,17.53
2023-10-07T22:22:43.468Z,17.57
2023-10-07T22:25:29.722Z,17.54
2023-10-07T22:28:12.780Z,17.49
2023-10-07T22:30:53.285Z,17.49
2023-10-07T22:33:34.676Z,17.46
2023-10-07T22:36:24.092Z,17.49
2023-10-07T22:39:20.871Z,17.48
2023-10-07T22:42:13.514Z,17.50
2023-10-07T22:44:57.298Z,17.56
2023-10-07T22:47:40.193Z,17.53
2023-10-07T22:50:20.633Z,17.52
2023-10-07T22:53:04.077Z,17.46
2023-10-07T22:55:51.812Z,17.45
2023-10-07T22:58:34.678Z,17.41
2023-10-07T23:01:17.265Z,17.37
2023-10-07T23:04:14.739Z,17.40
2023-10-07T23:07:01.625Z,17.40
2023-10-07T23:09:47.951Z,17.40
2023-10-07T23:12:29.446Z,17.37
2023-10-07T23:15:15.223Z,17.38
2023-10-07T23:17:55.884Z,17.35
2023-10-07T23:20:39.611Z,17.38
2023-10-07T23:23:22.349Z,17.34
2023-10-07T23:26:02.260Z,17.33
2023-10-07T23:28:45.019Z,17.32
2023-10-07T23:31:25.225Z,17.31
2023-10-07T23:34:32.088Z,17.29
2023-10-07T23:37:17.932Z,17.38
2023-10-07T23:39:58.616Z,17.34
2023-10-07T23:42:39.172Z,17.37
2023-10-07T23:45:20.539Z,17.32
2023-10-07T23:48:00.841Z,17.37
2023-10-07T23:50:44.247Z,17.31
2023-10-07T23:53:26.224Z,17.40
2023-10-07T23:56:08.250Z,17.39
2023-10-07T23:59:04.031Z,17.39
